createdAt,value
2018-05-29T00:01:41.984Z,4.50
2018-05-29T00:04:11.015Z,4.10
2018-05-29T00:06:39.272Z,3.90
2018-05-29T00:09:08.302Z,4.10
2018-05-29T00:11:36.546Z,4.73
2018-05-29T00:14:05.578Z,3.97
2018-05-29T00:16:33.831Z,4.33
2018-05-29T00:19:02.101Z,4.13
2018-05-29T00:21:31.122Z,4.23
2018-05-29T00:23:59.403Z,4.40
2018-05-29T00:26:28.768Z,4.30
2018-05-29T00:28:57.802Z,4.03
2018-05-29T00:31:26.060Z,4.47
2018-05-29T00:33:55.232Z,4.60
2018-05-29T00:36:24.255Z,4.97
2018-05-29T00:38:53.287Z,4.30
2018-05-29T00:41:21.551Z,4.50
2018-05-29T00:43:49.815Z,3.77
2018-05-29T00:46:18.836Z,4.33
2018-05-29T00:48:48.778Z,4.70
2018-05-29T00:51:17.035Z,4.57
2018-05-29T00:53:45.303Z,4.20
2018-05-29T00:56:14.330Z,4.10
2018-05-29T00:58:42.596Z,4.57
2018-05-29T01:01:10.842Z,4.90
2018-05-29T01:03:39.883Z,4.70
2018-05-29T01:06:08.140Z,4.30
2018-05-29T01:08:36.415Z,4.50
2018-05-29T01:11:05.441Z,4.10
2018-05-29T01:13:33.714Z,4.40
2018-05-29T01:16:01.967Z,4.30
2018-05-29T01:18:30.995Z,4.50
2018-05-29T01:21:00.734Z,4.10
2018-05-29T01:23:28.991Z,4.20
2018-05-29T01:25:57.246Z,4.17
2018-05-29T01:28:26.275Z,4.50
2018-05-29T01:30:54.523Z,3.90
2018-05-29T01:33:23.570Z,4.00
2018-05-29T01:35:51.827Z,4.13
2018-05-29T01:38:20.075Z,4.07
2018-05-29T01:40:49.100Z,4.60
2018-05-29T01:43:17.355Z,4.17
2018-05-29T01:45:46.382Z,4.17
2018-05-29T01:48:14.633Z,4.90
2018-05-29T01:50:43.663Z,4.43
2018-05-29T01:53:11.932Z,5.10
2018-05-29T01:55:40.200Z,4.53
2018-05-29T01:58:09.226Z,4.40
2018-05-29T02:00:37.480Z,4.50
2018-05-29T02:03:06.504Z,4.50
2018-05-29T02:05:34.771Z,4.47
2018-05-29T02:08:03.022Z,4.93
2018-05-29T02:10:32.055Z,4.50
2018-05-29T02:13:00.303Z,3.93
2018-05-29T02:15:29.334Z,4.53
2018-05-29T02:17:57.598Z,5.03
2018-05-29T02:20:26.631Z,4.90
2018-05-29T02:22:55.308Z,4.83
2018-05-29T02:25:24.515Z,5.20
2018-05-29T02:27:52.771Z,4.17
2018-05-29T02:30:21.052Z,4.23
2018-05-29T02:32:49.321Z,4.37
2018-05-29T02:35:18.352Z,4.83
2018-05-29T02:37:46.604Z,4.90
2018-05-29T02:40:15.643Z,4.73
2018-05-29T02:42:43.888Z,4.60
2018-05-29T02:45:12.155Z,4.53
2018-05-29T02:47:41.187Z,4.50
2018-05-29T02:50:09.444Z,4.53
2018-05-29T02:52:38.548Z,4.20
2018-05-29T02:55:07.033Z,4.15
2018-05-29T02:57:35.715Z,3.90
2018-05-29T03:00:04.743Z,3.83
2018-05-29T03:02:33.019Z,4.27
2018-05-29T03:05:01.293Z,4.57
2018-05-29T03:07:29.559Z,4.03
2018-05-29T03:09:57.822Z,4.30
2018-05-29T03:12:26.848Z,4.30
2018-05-29T03:14:55.116Z,4.90
2018-05-29T03:17:23.371Z,4.50
2018-05-29T03:19:52.424Z,4.23
2018-05-29T03:22:21.306Z,4.30
2018-05-29T03:24:49.610Z,3.97
2018-05-29T03:27:18.591Z,3.77
2018-05-29T03:29:47.179Z,4.07
2018-05-29T03:32:15.447Z,4.70
2018-05-29T03:34:43.695Z,4.60
2018-05-29T03:37:12.723Z,4.40
2018-05-29T03:39:40.975Z,4.30
2018-05-29T03:42:10.003Z,4.60
2018-05-29T03:44:38.267Z,4.53
2018-05-29T03:47:07.301Z,4.33
2018-05-29T03:49:35.556Z,4.30
2018-05-29T03:52:03.824Z,3.97
2018-05-29T03:54:32.847Z,4.00
2018-05-29T03:57:01.112Z,4.30
2018-05-29T03:59:29.367Z,3.87
2018-05-29T04:01:58.732Z,4.15
2018-05-29T04:04:26.979Z,4.00
2018-05-29T04:06:55.254Z,3.87
2018-05-29T04:09:25.948Z,4.23
2018-05-29T04:11:54.175Z,3.83
2018-05-29T04:14:22.443Z,3.77
2018-05-29T04:16:51.492Z,4.03
2018-05-29T04:19:19.741Z,3.97
2018-05-29T04:21:48.017Z,4.20
2018-05-29T04:24:16.266Z,3.83
2018-05-29T04:26:45.329Z,4.83
2018-05-29T04:29:13.596Z,4.47
2018-05-29T04:31:41.870Z,4.57
2018-05-29T04:34:10.660Z,4.50
2018-05-29T04:36:38.954Z,4.20
2018-05-29T04:39:07.240Z,4.77
2018-05-29T04:41:35.516Z,4.67
2018-05-29T04:44:03.763Z,5.07
2018-05-29T04:46:32.791Z,5.33
2018-05-29T04:49:01.073Z,5.03
2018-05-29T04:51:29.678Z,5.30
2018-05-29T04:53:57.927Z,4.87
2018-05-29T04:56:26.194Z,4.90
2018-05-29T04:58:54.450Z,4.20
2018-05-29T05:01:23.489Z,4.28
2018-05-29T05:03:51.741Z,4.47
2018-05-29T05:06:20.854Z,4.27
2018-05-29T05:08:49.132Z,4.63
2018-05-29T05:11:18.171Z,4.47
2018-05-29T05:13:46.420Z,4.70
2018-05-29T05:16:14.702Z,4.77
2018-05-29T05:18:42.962Z,4.77
2018-05-29T05:21:11.992Z,4.40
2018-05-29T05:23:40.317Z,4.47
2018-05-29T05:26:08.535Z,4.23
2018-05-29T05:28:36.806Z,4.17
2018-05-29T05:31:05.834Z,4.07
2018-05-29T05:33:34.099Z,4.65
2018-05-29T05:36:02.907Z,4.07
2018-05-29T05:38:31.179Z,3.85
2018-05-29T05:40:59.449Z,3.60
2018-05-29T05:43:27.715Z,3.67
2018-05-29T05:45:56.747Z,3.70
2018-05-29T05:48:25.020Z,3.60
2018-05-29T05:50:53.280Z,3.53
2018-05-29T05:53:22.393Z,3.43
2018-05-29T05:55:50.655Z,3.40
2018-05-29T05:58:20.935Z,3.50
2018-05-29T06:00:49.187Z,3.40
2018-05-29T06:03:17.451Z,3.60
2018-05-29T06:05:45.716Z,3.50
2018-05-29T06:08:14.731Z,3.78
2018-05-29T06:10:42.998Z,3.97
2018-05-29T06:13:12.025Z,3.63
2018-05-29T06:15:40.288Z,3.67
2018-05-29T06:18:08.565Z,3.45
2018-05-29T06:20:36.822Z,3.60
2018-05-29T06:23:05.858Z,3.50
2018-05-29T06:25:34.111Z,3.50
2018-05-29T06:28:03.184Z,3.10
2018-05-29T06:30:31.395Z,3.30
2018-05-29T06:33:00.441Z,4.28
2018-05-29T06:35:28.850Z,3.33
2018-05-29T06:37:58.623Z,3.70
2018-05-29T06:40:26.871Z,3.75
2018-05-29T06:42:55.903Z,3.97
2018-05-29T06:45:24.168Z,3.87
2018-05-29T06:47:52.436Z,3.60
2018-05-29T06:50:21.458Z,3.80
2018-05-29T06:52:49.729Z,3.05
2018-05-29T06:55:17.982Z,3.22
2018-05-29T06:57:47.025Z,2.97
2018-05-29T07:00:15.276Z,3.17
2018-05-29T07:02:45.927Z,3.12
2018-05-29T07:05:14.179Z,3.20
2018-05-29T07:07:43.995Z,3.50
2018-05-29T07:10:13.026Z,3.57
2018-05-29T07:12:41.292Z,2.88
2018-05-29T07:15:09.563Z,2.90
2018-05-29T07:17:37.842Z,3.20
2018-05-29T07:20:06.881Z,2.97
2018-05-29T07:22:35.134Z,3.00
2018-05-29T07:25:04.853Z,3.16
2018-05-29T07:27:33.094Z,3.28
2018-05-29T07:30:02.128Z,2.90
2018-05-29T07:32:30.384Z,3.00
2018-05-29T07:34:59.414Z,3.20
2018-05-29T07:37:27.670Z,2.85
2018-05-29T07:39:55.948Z,3.00
2018-05-29T07:42:25.074Z,3.13
2018-05-29T07:44:53.331Z,3.30
2018-05-29T07:47:21.599Z,3.00
2018-05-29T07:49:50.634Z,2.97
2018-05-29T07:52:18.895Z,2.80
2018-05-29T07:54:47.281Z,2.90
2018-05-29T07:57:16.807Z,3.06
2018-05-29T07:59:45.077Z,2.78
2018-05-29T08:02:13.348Z,2.87
2018-05-29T08:04:41.612Z,2.70
2018-05-29T08:07:10.642Z,2.83
2018-05-29T08:09:38.902Z,2.65
2018-05-29T08:12:07.923Z,3.30
2018-05-29T08:14:36.186Z,2.90
2018-05-29T08:17:05.284Z,2.95
2018-05-29T08:19:33.562Z,3.15
2018-05-29T08:22:01.824Z,2.80
2018-05-29T08:24:30.851Z,3.00
2018-05-29T08:26:59.127Z,2.90
2018-05-29T08:29:28.757Z,3.40
2018-05-29T08:31:57.012Z,3.20
2018-05-29T08:34:26.046Z,3.10
2018-05-29T08:36:54.291Z,2.85
2018-05-29T08:39:22.662Z,3.40
2018-05-29T08:41:51.671Z,3.17
2018-05-29T08:44:19.942Z,6.60
2018-05-29T08:46:48.971Z,3.63
2018-05-29T08:49:17.242Z,3.17
2018-05-29T08:51:45.512Z,3.00
2018-05-29T08:54:13.771Z,3.30
2018-05-29T08:56:42.817Z,3.10
2018-05-29T08:59:11.072Z,3.37
2018-05-29T09:01:41.520Z,3.50
2018-05-29T09:04:09.783Z,3.20
2018-05-29T09:06:38.806Z,3.50
2018-05-29T09:09:07.069Z,2.90
2018-05-29T09:11:35.339Z,2.70
2018-05-29T09:14:03.606Z,3.58
2018-05-29T09:16:32.624Z,3.90
2018-05-29T09:19:00.891Z,3.37
2018-05-29T09:21:30.004Z,3.20
2018-05-29T09:23:58.279Z,3.57
2018-05-29T09:26:26.554Z,3.15
2018-05-29T09:28:54.839Z,3.33
2018-05-29T09:31:23.106Z,3.40
2018-05-29T09:33:51.623Z,3.66
2018-05-29T09:36:19.886Z,3.20
2018-05-29T09:38:48.151Z,3.67
2018-05-29T09:41:17.280Z,3.33
2018-05-29T09:43:45.538Z,3.25
2018-05-29T09:46:14.571Z,3.33
2018-05-29T09:48:42.824Z,3.00
2018-05-29T09:51:11.853Z,3.20
2018-05-29T09:53:40.117Z,3.80
2018-05-29T09:56:08.383Z,2.83
2018-05-29T09:58:36.653Z,3.65
2018-05-29T10:01:05.707Z,3.40
2018-05-29T10:03:33.947Z,3.30
2018-05-29T10:06:04.067Z,3.80
2018-05-29T10:08:33.083Z,3.50
2018-05-29T10:11:01.358Z,3.50
2018-05-29T10:13:30.012Z,3.50
2018-05-29T10:15:59.040Z,3.37
2018-05-29T10:18:27.302Z,3.50
2018-05-29T10:20:56.410Z,3.37
2018-05-29T10:23:25.465Z,3.80
2018-05-29T10:25:53.808Z,3.90
2018-05-29T10:28:22.068Z,3.80
2018-05-29T10:30:50.360Z,3.50
2018-05-29T10:33:19.352Z,3.10
2018-05-29T10:35:47.609Z,3.62
2018-05-29T10:38:16.551Z,3.70
2018-05-29T10:40:44.802Z,3.45
2018-05-29T10:43:13.843Z,4.03
2018-05-29T10:45:42.110Z,3.43
2018-05-29T10:48:10.379Z,3.50
2018-05-29T10:50:38.637Z,3.30
2018-05-29T10:53:07.755Z,3.90
2018-05-29T10:55:36.031Z,3.50
2018-05-29T10:58:05.053Z,3.75
2018-05-29T11:00:33.299Z,3.72
2018-05-29T11:03:02.334Z,3.60
2018-05-29T11:05:30.607Z,3.83
2018-05-29T11:07:58.872Z,3.73
2018-05-29T11:10:28.338Z,3.54
2018-05-29T11:12:57.612Z,3.37
2018-05-29T11:15:25.863Z,3.30
2018-05-29T11:17:54.124Z,3.77
2018-05-29T11:20:23.155Z,3.30
2018-05-29T11:22:51.435Z,3.78
2018-05-29T11:25:19.689Z,3.80
2018-05-29T11:27:48.735Z,3.57
2018-05-29T11:30:17.070Z,2.92
2018-05-29T11:32:45.336Z,3.28
2018-05-29T11:35:14.367Z,3.42
2018-05-29T11:37:42.634Z,3.50
2018-05-29T11:40:10.911Z,3.70
2018-05-29T11:42:41.368Z,3.34
2018-05-29T11:45:09.632Z,3.30
2018-05-29T11:47:37.900Z,3.40
2018-05-29T11:50:06.924Z,3.40
2018-05-29T11:52:35.182Z,3.50
2018-05-29T11:55:03.430Z,3.60
2018-05-29T11:57:32.480Z,3.40
2018-05-29T12:00:00.733Z,3.63
2018-05-29T12:02:29.759Z,3.17
2018-05-29T12:04:58.033Z,3.87
2018-05-29T12:07:26.286Z,3.33
2018-05-29T12:09:55.319Z,3.10
2018-05-29T12:12:27.013Z,3.72
2018-05-29T12:14:55.357Z,3.10
2018-05-29T12:17:23.624Z,3.70
2018-05-29T12:19:51.901Z,3.50
2018-05-29T12:22:20.669Z,3.13
2018-05-29T12:24:48.880Z,3.07
2018-05-29T12:27:19.143Z,3.50
2018-05-29T12:29:47.415Z,3.20
2018-05-29T12:32:15.674Z,4.20
2018-05-29T12:34:43.940Z,3.50
2018-05-29T12:37:12.207Z,3.55
2018-05-29T12:39:41.239Z,3.22
2018-05-29T12:42:09.501Z,3.57
2018-05-29T12:44:37.764Z,3.47
2018-05-29T12:47:06.795Z,3.80
2018-05-29T12:49:35.071Z,4.00
2018-05-29T12:52:03.339Z,3.70
2018-05-29T12:54:31.603Z,4.50
2018-05-29T12:57:00.624Z,3.67
2018-05-29T12:59:28.880Z,3.50
2018-05-29T13:01:57.904Z,4.20
2018-05-29T13:04:26.180Z,3.80
2018-05-29T13:06:54.457Z,4.10
2018-05-29T13:09:24.570Z,4.20
2018-05-29T13:11:52.831Z,4.00
2018-05-29T13:14:21.866Z,3.57
2018-05-29T13:16:50.121Z,4.10
2018-05-29T13:19:19.152Z,3.87
2018-05-29T13:21:47.407Z,3.90
2018-05-29T13:24:15.696Z,3.80
2018-05-29T13:26:43.947Z,3.90
2018-05-29T13:29:12.979Z,3.70
2018-05-29T13:31:41.235Z,3.92
2018-05-29T13:34:10.272Z,3.80
2018-05-29T13:36:38.527Z,3.93
2018-05-29T13:39:06.847Z,3.77
2018-05-29T13:41:35.627Z,4.04
2018-05-29T13:44:03.892Z,3.90
2018-05-29T13:46:32.141Z,4.03
2018-05-29T13:49:01.173Z,4.20
2018-05-29T13:51:29.422Z,3.92
2018-05-29T13:53:58.458Z,4.20
2018-05-29T13:56:26.733Z,3.70
2018-05-29T13:58:55.738Z,3.47
2018-05-29T14:01:24.011Z,4.00
2018-05-29T14:03:52.271Z,4.40
2018-05-29T14:06:20.530Z,4.25
2018-05-29T14:08:49.578Z,4.10
2018-05-29T14:11:17.844Z,4.10
2018-05-29T14:13:46.115Z,4.03
2018-05-29T14:16:15.148Z,4.05
2018-05-29T14:18:43.415Z,3.70
2018-05-29T14:21:11.675Z,3.80
2018-05-29T14:23:39.947Z,3.78
2018-05-29T14:26:08.985Z,3.80
2018-05-29T14:28:37.235Z,3.60
2018-05-29T14:31:05.544Z,3.83
2018-05-29T14:33:33.790Z,3.78
2018-05-29T14:36:02.851Z,4.05
2018-05-29T14:38:31.169Z,4.22
2018-05-29T14:40:59.363Z,3.90
2018-05-29T14:43:27.632Z,4.20
2018-05-29T14:45:55.905Z,4.20
2018-05-29T14:48:24.924Z,4.03
2018-05-29T14:50:53.218Z,3.97
2018-05-29T14:53:21.501Z,3.67
2018-05-29T14:55:50.922Z,3.62
2018-05-29T14:58:19.277Z,3.92
2018-05-29T15:00:47.665Z,3.83
2018-05-29T15:03:15.979Z,4.00
2018-05-29T15:05:44.433Z,3.90
2018-05-29T15:08:12.763Z,3.85
2018-05-29T15:10:42.603Z,3.53
2018-05-29T15:13:11.660Z,4.13
2018-05-29T15:15:40.747Z,3.90
2018-05-29T15:18:09.046Z,4.10
2018-05-29T15:20:38.128Z,3.90
2018-05-29T15:23:06.405Z,3.73
2018-05-29T15:25:34.725Z,4.20
2018-05-29T15:28:03.043Z,4.25
2018-05-29T15:30:31.453Z,3.62
2018-05-29T15:33:00.554Z,3.97
2018-05-29T15:35:28.814Z,3.80
2018-05-29T15:37:57.096Z,3.40
2018-05-29T15:40:25.376Z,3.90
2018-05-29T15:42:53.654Z,4.00
2018-05-29T15:45:21.950Z,3.90
2018-05-29T15:47:50.221Z,3.67
2018-05-29T15:50:18.529Z,3.87
2018-05-29T15:52:46.819Z,3.83
2018-05-29T15:55:15.137Z,3.53
2018-05-29T15:57:44.173Z,4.00
2018-05-29T16:00:12.605Z,3.90
2018-05-29T16:02:41.727Z,3.90
2018-05-29T16:05:10.006Z,3.70
2018-05-29T16:07:38.295Z,3.90
2018-05-29T16:10:06.612Z,3.83
2018-05-29T16:12:34.904Z,4.00
2018-05-29T16:15:03.179Z,4.00
2018-05-29T16:17:31.487Z,3.90
2018-05-29T16:20:00.788Z,4.12
2018-05-29T16:22:29.837Z,4.30
2018-05-29T16:24:58.115Z,4.33
2018-05-29T16:27:26.399Z,4.27
2018-05-29T16:29:54.925Z,4.20
2018-05-29T16:32:23.219Z,4.85
2018-05-29T16:34:52.268Z,4.55
2018-05-29T16:37:20.563Z,3.90
2018-05-29T16:39:48.864Z,4.10
2018-05-29T16:42:17.143Z,3.90
2018-05-29T16:44:46.930Z,4.30
2018-05-29T16:47:15.223Z,3.90
2018-05-29T16:49:43.538Z,4.50
2018-05-29T16:52:11.894Z,4.47
2018-05-29T16:54:40.209Z,4.10
2018-05-29T16:57:09.337Z,4.00
2018-05-29T16:59:37.700Z,3.93
2018-05-29T17:02:08.051Z,4.00
2018-05-29T17:04:36.352Z,4.22
2018-05-29T17:07:04.694Z,4.03
2018-05-29T17:09:33.738Z,4.20
2018-05-29T17:12:02.543Z,4.40
2018-05-29T17:14:33.886Z,4.72
2018-05-29T17:17:02.205Z,3.95
2018-05-29T17:19:31.272Z,4.27
2018-05-29T17:21:59.592Z,3.50
2018-05-29T17:24:28.843Z,4.08
2018-05-29T17:26:57.172Z,4.07
2018-05-29T17:29:25.559Z,3.73
2018-05-29T17:31:54.699Z,3.90
2018-05-29T17:34:23.008Z,3.95
2018-05-29T17:36:51.313Z,3.80
2018-05-29T17:39:20.371Z,3.87
2018-05-29T17:41:48.698Z,3.80
2018-05-29T17:44:17.766Z,3.60
2018-05-29T17:46:46.105Z,4.00
2018-05-29T17:49:14.565Z,4.22
2018-05-29T17:51:43.804Z,3.67
2018-05-29T17:54:12.094Z,3.95
2018-05-29T17:56:40.441Z,3.90
2018-05-29T17:59:08.856Z,4.03
2018-05-29T18:01:38.069Z,3.90
2018-05-29T18:04:07.207Z,4.03
2018-05-29T18:06:35.702Z,4.35
2018-05-29T18:09:04.128Z,3.58
2018-05-29T18:11:32.632Z,4.00
2018-05-29T18:14:01.038Z,4.00
2018-05-29T18:16:29.610Z,3.70
2018-05-29T18:18:57.868Z,4.05
2018-05-29T18:21:26.204Z,3.80
2018-05-29T18:23:55.417Z,4.03
2018-05-29T18:26:23.954Z,3.97
2018-05-29T18:28:52.308Z,3.95
2018-05-29T18:31:20.621Z,4.00
2018-05-29T18:33:49.212Z,3.90
2018-05-29T18:36:17.571Z,4.03
2018-05-29T18:38:45.940Z,3.97
2018-05-29T18:41:15.032Z,3.50
2018-05-29T18:43:43.358Z,3.83
2018-05-29T18:46:11.669Z,3.83
2018-05-29T18:48:39.975Z,3.85
2018-05-29T18:51:08.366Z,3.90
2018-05-29T18:53:37.489Z,3.97
2018-05-29T18:56:05.751Z,3.97
2018-05-29T18:58:34.063Z,4.28
2018-05-29T19:01:03.135Z,3.80
2018-05-29T19:03:31.493Z,3.77
2018-05-29T19:06:00.529Z,3.50
2018-05-29T19:08:28.819Z,3.33
2018-05-29T19:10:57.102Z,3.62
2018-05-29T19:13:25.429Z,4.50
2018-05-29T19:15:53.705Z,3.87
2018-05-29T19:18:22.850Z,4.10
2018-05-29T19:20:51.180Z,4.18
2018-05-29T19:23:20.232Z,4.45
2018-05-29T19:25:48.520Z,4.77
2018-05-29T19:28:18.343Z,4.13
2018-05-29T19:30:46.639Z,4.80
2018-05-29T19:33:15.778Z,5.22
2018-05-29T19:35:44.039Z,6.10
2018-05-29T19:38:13.066Z,5.90
2018-05-29T19:40:41.339Z,5.90
2018-05-29T19:43:09.604Z,6.70
2018-05-29T19:45:37.854Z,6.93
2018-05-29T19:48:06.892Z,6.73
2018-05-29T19:50:35.165Z,7.32
2018-05-29T19:53:03.433Z,9.23
2018-05-29T19:55:32.456Z,7.60
2018-05-29T19:58:00.728Z,8.43
2018-05-29T20:00:28.999Z,10.05
2018-05-29T20:02:57.279Z,10.05
2018-05-29T20:05:26.317Z,10.20
2018-05-29T20:07:54.658Z,9.87
2018-05-29T20:10:22.915Z,9.77
2018-05-29T20:12:51.956Z,10.45
2018-05-29T20:15:20.223Z,10.18
2018-05-29T20:17:48.487Z,9.87
2018-05-29T20:20:17.511Z,9.68
2018-05-29T20:22:45.795Z,10.45
2018-05-29T20:25:14.051Z,7.78
2018-05-29T20:27:43.066Z,8.50
2018-05-29T20:30:11.335Z,7.80
2018-05-29T20:32:39.597Z,6.80
2018-05-29T20:35:08.621Z,6.18
2018-05-29T20:37:36.874Z,5.77
2018-05-29T20:40:05.906Z,7.00
2018-05-29T20:42:34.175Z,8.38
2018-05-29T20:45:02.435Z,9.05
2018-05-29T20:47:31.503Z,10.13
2018-05-29T20:50:00.261Z,12.13
2018-05-29T20:52:28.524Z,14.83
2018-05-29T20:54:58.047Z,15.90
2018-05-29T20:57:26.304Z,12.63
2018-05-29T20:59:55.339Z,14.57
2018-05-29T21:02:23.600Z,11.07
2018-05-29T21:04:51.876Z,13.10
2018-05-29T21:07:20.130Z,9.33
2018-05-29T21:09:49.204Z,8.43
2018-05-29T21:12:17.472Z,8.90
2018-05-29T21:14:45.815Z,8.40
2018-05-29T21:17:14.084Z,6.20
2018-05-29T21:19:43.112Z,7.63
2018-05-29T21:22:11.393Z,7.53
2018-05-29T21:24:40.403Z,7.10
2018-05-29T21:27:08.671Z,6.83
2018-05-29T21:29:36.943Z,6.37
2018-05-29T21:32:05.192Z,6.17
2018-05-29T21:34:34.310Z,5.13
2018-05-29T21:37:03.127Z,5.00
2018-05-29T21:39:31.444Z,4.47
2018-05-29T21:41:59.662Z,5.00
2018-05-29T21:44:28.350Z,4.90
2018-05-29T21:46:56.613Z,5.60
2018-05-29T21:49:25.648Z,6.10
2018-05-29T21:51:53.888Z,5.67
2018-05-29T21:54:22.920Z,5.30
2018-05-29T21:56:51.165Z,5.60
2018-05-29T21:59:20.214Z,5.43
2018-05-29T22:01:48.478Z,5.40
2018-05-29T22:04:16.747Z,6.40
2018-05-29T22:06:45.870Z,6.30
2018-05-29T22:09:14.852Z,5.80
2018-05-29T22:11:43.120Z,5.53
2018-05-29T22:14:12.133Z,6.17
2018-05-29T22:16:40.403Z,5.30
2018-05-29T22:19:08.679Z,5.43
2018-05-29T22:21:37.709Z,5.90
2018-05-29T22:24:05.972Z,5.50
2018-05-29T22:26:34.223Z,5.17
2018-05-29T22:29:03.263Z,5.50
2018-05-29T22:31:31.514Z,5.07
2018-05-29T22:34:00.556Z,5.03
2018-05-29T22:36:28.899Z,5.27
2018-05-29T22:38:57.926Z,4.93
2018-05-29T22:41:26.995Z,5.43
2018-05-29T22:43:55.276Z,6.17
2018-05-29T22:46:24.379Z,5.12
2018-05-29T22:48:52.655Z,4.80
2018-05-29T22:51:21.694Z,4.93
2018-05-29T22:53:49.983Z,5.27
2018-05-29T22:56:18.216Z,5.10
2018-05-29T22:58:47.234Z,5.03
2018-05-29T23:01:15.512Z,5.10
2018-05-29T23:03:43.794Z,5.30
2018-05-29T23:06:12.047Z,5.00
2018-05-29T23:08:41.208Z,5.60
2018-05-29T23:11:10.971Z,5.60
2018-05-29T23:13:39.243Z,5.43
2018-05-29T23:16:08.264Z,5.40
2018-05-29T23:18:36.531Z,5.40
2018-05-29T23:21:04.804Z,5.40
2018-05-29T23:23:33.822Z,5.47
2018-05-29T23:26:02.084Z,5.30
2018-05-29T23:28:31.108Z,5.00
2018-05-29T23:30:59.368Z,5.60
2018-05-29T23:33:27.623Z,5.70
2018-05-29T23:35:56.667Z,6.57
2018-05-29T23:38:24.923Z,6.73
2018-05-29T23:40:54.308Z,5.40
2018-05-29T23:43:23.327Z,6.13
2018-05-29T23:45:51.599Z,5.97
2018-05-29T23:48:20.615Z,6.10
2018-05-29T23:50:48.892Z,6.50
2018-05-29T23:53:17.151Z,6.77
2018-05-29T23:55:46.179Z,6.93
2018-05-29T23:58:14.443Z,7.57
